Time;durP1;ratioP1;P1;durP2;ratioP2;P2;SDS_P1;SDS_P2;PMS_P1;PMS_P2;Temp;Humidity;BMP_temperature;BMP_pressure;BME280_temperature;BME280_humidity;BME280_pressure;Samples;Min_cycle;Max_cycle;Signal;HPM_P1;HPM_P2
2022/05/18 00:01:33;;;;;;;;;;;18.60;99.90;;;;;;4964253;28;19910;-62
2022/05/18 00:03:59;;;;;;;;;;;18.70;99.90;;;;;;4968896;28;20231;-62
2022/05/18 00:06:24;;;;;;;;;;;18.60;99.90;;;;;;4962226;28;20451;-62
2022/05/18 00:08:50;;;;;;;;;;;18.70;99.90;;;;;;4966058;28;20525;-62
2022/05/18 00:11:16;;;;;;;;;;;18.60;99.90;;;;;;4968172;28;19923;-62
2022/05/18 00:13:44;;;;;;;;;;;18.60;99.90;;;;;;4962900;28;19917;-63
2022/05/18 00:16:10;;;;;;;;;;;18.60;99.90;;;;;;4968427;28;20374;-63
2022/05/18 00:18:35;;;;;;;;;;;18.50;99.90;;;;;;4958206;28;20393;-63
2022/05/18 00:21:01;;;;;;;;;;;18.50;99.90;;;;;;4962688;28;19914;-63
2022/05/18 00:23:27;;;;;;;;;;;18.50;99.90;;;;;;4962270;28;19937;-63
2022/05/18 00:25:53;;;;;;;;;;;18.60;99.90;;;;;;4966441;28;20297;-63
2022/05/18 00:28:18;;;;;;;;;;;18.50;99.90;;;;;;4962188;28;19961;-62
2022/05/18 00:30:44;;;;;;;;;;;18.70;99.90;;;;;;4961704;28;20253;-63
2022/05/18 00:33:10;;;;;;;;;;;18.60;99.90;;;;;;4966377;28;19921;-63
2022/05/18 00:35:36;;;;;;;;;;;18.50;99.90;;;;;;4964182;28;19918;-62
2022/05/18 00:38:03;;;;;;;;;;;18.40;99.90;;;;;;4966096;28;20020;-63
2022/05/18 00:40:28;;;;;;;;;;;18.30;99.90;;;;;;4965684;28;19920;-63
2022/05/18 00:42:54;;;;;;;;;;;18.30;99.90;;;;;;4966618;28;20273;-62
2022/05/18 00:45:19;;;;;;;;;;;18.40;99.90;;;;;;4969028;28;19921;-62
2022/05/18 00:47:45;;;;;;;;;;;18.40;99.90;;;;;;4966314;28;19915;-63
2022/05/18 00:50:16;;;;;;;;;;;18.30;99.90;;;;;;4961870;28;19918;-63
2022/05/18 00:52:45;;;;;;;;;;;18.30;99.90;;;;;;4966221;28;19944;-62
2022/05/18 00:55:12;;;;;;;;;;;18.30;99.90;;;;;;4959225;28;19930;-62
2022/05/18 00:57:59;;;;;;;;;;;18.20;99.90;;;;;;4965161;28;20524;-62
2022/05/18 01:00:24;;;;;;;;;;;18.20;99.90;;;;;;4966089;28;19914;-62
2022/05/18 01:02:55;;;;;;;;;;;18.20;99.90;;;;;;4964087;28;19922;-62
2022/05/18 01:05:25;;;;;;;;;;;18.20;99.90;;;;;;4948374;28;20016;-62
2022/05/18 01:07:52;;;;;;;;;;;18.20;99.90;;;;;;4965846;28;20289;-62
2022/05/18 01:10:17;;;;;;;;;;;18.10;99.90;;;;;;4964213;28;19918;-63
2022/05/18 01:12:44;;;;;;;;;;;18.10;99.90;;;;;;4962390;28;20123;-62
2022/05/18 01:15:12;;;;;;;;;;;18.20;99.90;;;;;;4965433;28;20109;-62
2022/05/18 01:17:39;;;;;;;;;;;18.10;99.90;;;;;;4962169;28;20016;-62
2022/05/18 01:20:06;;;;;;;;;;;18.10;99.90;;;;;;4965631;28;19926;-62
2022/05/18 01:22:44;;;;;;;;;;;18.10;99.90;;;;;;4968049;28;19968;-62
2022/05/18 01:25:10;;;;;;;;;;;18.10;99.90;;;;;;4971177;28;20183;-62
2022/05/18 01:27:35;;;;;;;;;;;18.20;99.90;;;;;;4960824;28;19918;-62
2022/05/18 01:30:01;;;;;;;;;;;18.10;99.90;;;;;;4966408;28;20385;-62
2022/05/18 01:32:37;;;;;;;;;;;18.10;99.90;;;;;;4963266;28;19922;-62
2022/05/18 01:35:02;;;;;;;;;;;18.10;99.90;;;;;;4948789;28;19914;-62
2022/05/18 01:37:28;;;;;;;;;;;18.00;99.90;;;;;;4954735;28;20324;-63
2022/05/18 01:39:58;;;;;;;;;;;17.90;99.90;;;;;;4953209;28;19914;-62
2022/05/18 01:42:35;;;;;;;;;;;18.10;99.90;;;;;;4950946;28;19918;-62
2022/05/18 01:45:01;;;;;;;;;;;18.10;99.90;;;;;;4963608;28;19925;-62
2022/05/18 01:47:31;;;;;;;;;;;18.10;99.90;;;;;;4943937;28;20223;-62
2022/05/18 01:49:57;;;;;;;;;;;18.10;99.90;;;;;;4968473;28;19918;-62
2022/05/18 01:52:22;;;;;;;;;;;18.10;99.90;;;;;;4965262;28;19929;-62
2022/05/18 01:54:48;;;;;;;;;;;18.10;99.90;;;;;;4959421;28;19934;-62
2022/05/18 01:57:14;;;;;;;;;;;18.20;99.90;;;;;;4968571;28;19922;-62
2022/05/18 01:59:40;;;;;;;;;;;18.20;99.90;;;;;;4967447;28;20401;-62
2022/05/18 02:02:06;;;;;;;;;;;18.20;99.90;;;;;;4966025;28;19914;-62
2022/05/18 02:04:33;;;;;;;;;;;18.10;99.90;;;;;;4948266;28;19911;-62
2022/05/18 02:07:01;;;;;;;;;;;18.20;99.90;;;;;;4969195;28;19925;-63
2022/05/18 02:09:27;;;;;;;;;;;18.20;99.90;;;;;;4953287;28;19918;-62
2022/05/18 02:11:53;;;;;;;;;;;18.30;99.90;;;;;;4969609;28;19956;-63
2022/05/18 02:14:19;;;;;;;;;;;18.30;99.90;;;;;;4961995;28;19919;-63
2022/05/18 02:16:44;;;;;;;;;;;18.30;99.90;;;;;;4968777;28;19918;-62
2022/05/18 02:19:10;;;;;;;;;;;18.30;99.90;;;;;;4968527;28;20313;-62
2022/05/18 02:21:35;;;;;;;;;;;18.30;99.90;;;;;;4966041;28;20392;-62
2022/05/18 02:24:01;;;;;;;;;;;18.30;99.90;;;;;;4965900;28;20537;-63
2022/05/18 02:26:26;;;;;;;;;;;18.30;99.90;;;;;;4966022;28;20443;-62
2022/05/18 02:28:52;;;;;;;;;;;18.30;99.90;;;;;;4966873;28;20012;-62
2022/05/18 02:31:17;;;;;;;;;;;18.30;99.90;;;;;;4966651;28;19918;-62
2022/05/18 02:33:43;;;;;;;;;;;18.30;99.90;;;;;;4965634;28;19954;-62
2022/05/18 02:36:11;;;;;;;;;;;18.30;99.90;;;;;;4969727;28;19917;-62
2022/05/18 02:38:37;;;;;;;;;;;18.30;99.90;;;;;;4968485;28;19918;-62
2022/05/18 02:41:02;;;;;;;;;;;18.30;99.90;;;;;;4967686;28;20757;-62
2022/05/18 02:43:28;;;;;;;;;;;18.40;99.90;;;;;;4969128;28;19910;-62
2022/05/18 02:46:00;;;;;;;;;;;18.40;99.90;;;;;;4958564;28;19922;-62
2022/05/18 02:48:26;;;;;;;;;;;18.40;99.90;;;;;;4953757;28;20271;-62
2022/05/18 02:50:51;;;;;;;;;;;18.40;99.90;;;;;;4967792;28;19925;-63
2022/05/18 02:53:17;;;;;;;;;;;18.40;99.90;;;;;;4964821;28;19930;-62
2022/05/18 02:58:26;;;;;;;;;;;18.50;99.90;;;;;;4966575;28;19964;-62
2022/05/18 03:00:52;;;;;;;;;;;18.50;99.90;;;;;;4967180;28;19957;-62
2022/05/18 03:03:17;;;;;;;;;;;18.60;99.90;;;;;;4965631;28;20432;-62
2022/05/18 03:05:43;;;;;;;;;;;18.60;99.90;;;;;;4969335;28;19918;-62
2022/05/18 03:08:08;;;;;;;;;;;18.60;99.90;;;;;;4968346;28;20536;-62
2022/05/18 03:10:34;;;;;;;;;;;18.60;99.90;;;;;;4967170;28;19922;-62
2022/05/18 03:12:59;;;;;;;;;;;18.60;99.90;;;;;;4965340;28;20419;-63
2022/05/18 03:15:25;;;;;;;;;;;18.70;99.90;;;;;;4967253;28;20198;-63
2022/05/18 03:17:50;;;;;;;;;;;18.80;99.90;;;;;;4962735;28;19980;-63
2022/05/18 03:25:44;;;;;;;;;;;18.80;99.90;;;;;;4973542;28;20000;-63
2022/05/18 03:28:09;;;;;;;;;;;18.80;99.90;;;;;;4969100;28;19961;-62
2022/05/18 03:30:35;;;;;;;;;;;18.80;99.90;;;;;;4964893;28;20409;-62
2022/05/18 03:33:00;;;;;;;;;;;18.80;99.90;;;;;;4963806;28;19926;-62
2022/05/18 03:35:26;;;;;;;;;;;18.70;99.90;;;;;;4962963;28;19919;-62
2022/05/18 03:37:51;;;;;;;;;;;18.70;99.90;;;;;;4958720;28;20341;-62
2022/05/18 03:40:17;;;;;;;;;;;18.70;99.90;;;;;;4965323;28;19918;-62
2022/05/18 03:42:42;;;;;;;;;;;18.70;99.90;;;;;;4964845;28;19933;-62
2022/05/18 03:45:08;;;;;;;;;;;18.70;99.90;;;;;;4966325;28;20008;-62
2022/05/18 03:47:33;;;;;;;;;;;18.70;99.90;;;;;;4964340;28;19952;-62
2022/05/18 03:49:59;;;;;;;;;;;18.70;99.90;;;;;;4953031;28;19925;-62
2022/05/18 03:52:24;;;;;;;;;;;18.70;99.90;;;;;;4968051;28;19965;-62
2022/05/18 03:54:50;;;;;;;;;;;18.70;99.90;;;;;;4961494;28;20305;-62
2022/05/18 03:57:15;;;;;;;;;;;18.70;99.90;;;;;;4964895;28;19926;-62
2022/05/18 03:59:41;;;;;;;;;;;18.70;99.90;;;;;;4949379;28;19926;-62
2022/05/18 04:02:06;;;;;;;;;;;18.80;99.90;;;;;;4959763;28;20308;-62
2022/05/18 04:04:32;;;;;;;;;;;18.80;99.90;;;;;;4948224;28;19918;-62
2022/05/18 04:06:57;;;;;;;;;;;18.80;99.90;;;;;;4968657;28;19910;-62
2022/05/18 04:09:23;;;;;;;;;;;18.80;99.90;;;;;;4960328;28;19921;-62
2022/05/18 04:11:48;;;;;;;;;;;18.80;99.90;;;;;;4966311;28;19977;-62
2022/05/18 04:14:14;;;;;;;;;;;18.80;99.90;;;;;;4966085;28;20061;-62
2022/05/18 04:16:42;;;;;;;;;;;18.80;99.90;;;;;;4967665;28;19924;-62
2022/05/18 04:19:07;;;;;;;;;;;18.90;99.90;;;;;;4963255;28;19922;-62
2022/05/18 04:21:33;;;;;;;;;;;18.90;99.90;;;;;;4963351;28;19914;-62
2022/05/18 04:23:58;;;;;;;;;;;18.90;99.90;;;;;;4965919;28;19937;-62
2022/05/18 04:26:24;;;;;;;;;;;18.90;99.90;;;;;;4966899;28;19914;-62
2022/05/18 04:28:49;;;;;;;;;;;18.90;99.90;;;;;;4961739;28;20726;-62
2022/05/18 04:31:15;;;;;;;;;;;18.90;99.90;;;;;;4962367;28;19969;-62
2022/05/18 04:33:40;;;;;;;;;;;18.90;99.90;;;;;;4962362;28;20392;-62
2022/05/18 04:36:06;;;;;;;;;;;19.00;99.90;;;;;;4960335;28;19981;-62
2022/05/18 04:38:32;;;;;;;;;;;19.00;99.90;;;;;;4963118;28;20104;-62
2022/05/18 04:40:58;;;;;;;;;;;19.10;99.90;;;;;;4965023;28;19918;-62
2022/05/18 04:43:24;;;;;;;;;;;19.10;99.90;;;;;;4965702;28;20350;-62
2022/05/18 04:45:51;;;;;;;;;;;19.10;99.90;;;;;;4966151;28;20340;-62
2022/05/18 04:48:17;;;;;;;;;;;19.10;99.90;;;;;;4969071;28;19910;-62
2022/05/18 04:50:47;;;;;;;;;;;19.20;99.90;;;;;;4967680;28;19985;-62
2022/05/18 04:53:14;;;;;;;;;;;19.30;99.90;;;;;;4962362;28;19921;-62
2022/05/18 04:55:40;;;;;;;;;;;19.30;99.90;;;;;;4962988;28;19936;-62
2022/05/18 04:58:05;;;;;;;;;;;19.30;99.90;;;;;;4958609;28;20429;-62
2022/05/18 05:00:31;;;;;;;;;;;19.30;99.90;;;;;;4961343;28;19924;-62
2022/05/18 05:02:57;;;;;;;;;;;19.30;99.90;;;;;;4952837;28;19918;-62
2022/05/18 05:05:24;;;;;;;;;;;19.30;99.90;;;;;;4944733;28;20265;-62
2022/05/18 05:07:49;;;;;;;;;;;19.40;99.90;;;;;;4958976;28;19918;-61
2022/05/18 05:10:16;;;;;;;;;;;19.40;99.90;;;;;;4962524;28;20456;-62
2022/05/18 05:12:41;;;;;;;;;;;19.40;99.90;;;;;;4956735;28;20302;-62
2022/05/18 05:15:07;;;;;;;;;;;19.40;99.90;;;;;;4958801;28;19922;-62
2022/05/18 05:17:33;;;;;;;;;;;19.50;99.90;;;;;;4959781;28;20667;-62
2022/05/18 05:19:59;;;;;;;;;;;19.50;99.90;;;;;;4958132;28;20009;-62
2022/05/18 05:22:25;;;;;;;;;;;19.60;99.90;;;;;;4960704;28;19932;-62
2022/05/18 05:24:50;;;;;;;;;;;19.60;99.90;;;;;;4961295;28;20266;-62
2022/05/18 05:27:16;;;;;;;;;;;19.60;99.90;;;;;;4964985;28;19919;-62
2022/05/18 05:29:41;;;;;;;;;;;19.70;99.90;;;;;;4964832;28;19918;-62
2022/05/18 05:32:08;;;;;;;;;;;19.70;99.90;;;;;;4963312;28;20013;-62
2022/05/18 05:34:33;;;;;;;;;;;19.70;99.90;;;;;;4963332;28;19918;-62
2022/05/18 05:36:59;;;;;;;;;;;19.80;99.90;;;;;;4962372;28;19918;-62
2022/05/18 05:39:24;;;;;;;;;;;19.80;99.90;;;;;;4960518;28;19969;-62
2022/05/18 05:41:49;;;;;;;;;;;19.80;99.90;;;;;;4964650;28;19958;-62
2022/05/18 05:44:15;;;;;;;;;;;19.90;99.90;;;;;;4961964;28;19929;-62
2022/05/18 05:46:40;;;;;;;;;;;19.90;99.90;;;;;;4961830;28;20257;-62
2022/05/18 05:49:06;;;;;;;;;;;20.00;99.90;;;;;;4959312;28;20013;-62
2022/05/18 05:51:31;;;;;;;;;;;20.10;99.90;;;;;;4963587;28;20431;-62
2022/05/18 05:53:57;;;;;;;;;;;20.10;99.90;;;;;;4953755;28;19931;-62
2022/05/18 05:56:22;;;;;;;;;;;20.10;99.90;;;;;;4955180;28;19926;-62
2022/05/18 05:58:48;;;;;;;;;;;20.20;99.90;;;;;;4960144;28;19945;-62
2022/05/18 06:01:14;;;;;;;;;;;20.20;99.90;;;;;;4957486;28;19918;-62
2022/05/18 06:03:40;;;;;;;;;;;20.20;99.90;;;;;;4962660;28;20463;-62
2022/05/18 06:06:06;;;;;;;;;;;20.30;99.90;;;;;;4962863;28;20301;-62
2022/05/18 06:08:32;;;;;;;;;;;20.40;99.90;;;;;;4965377;28;19914;-62
2022/05/18 06:10:58;;;;;;;;;;;20.40;99.90;;;;;;4954730;28;19915;-63
2022/05/18 06:13:23;;;;;;;;;;;20.40;99.90;;;;;;4961116;28;20285;-62
2022/05/18 06:15:50;;;;;;;;;;;20.50;99.90;;;;;;4965164;28;19914;-63
2022/05/18 06:18:16;;;;;;;;;;;20.50;99.90;;;;;;4963676;28;20010;-63
2022/05/18 06:20:41;;;;;;;;;;;20.60;99.90;;;;;;4960324;28;20005;-63
2022/05/18 06:23:08;;;;;;;;;;;20.70;99.90;;;;;;4961821;28;19929;-63
2022/05/18 06:25:34;;;;;;;;;;;20.70;99.90;;;;;;4966019;28;19925;-63
2022/05/18 06:28:00;;;;;;;;;;;20.90;99.90;;;;;;4962392;28;19918;-62
2022/05/18 06:30:26;;;;;;;;;;;20.90;99.90;;;;;;4963630;28;20388;-62
2022/05/18 06:32:53;;;;;;;;;;;21.00;99.90;;;;;;4967977;28;19918;-62
2022/05/18 06:35:18;;;;;;;;;;;21.00;99.90;;;;;;4964911;28;19918;-63
2022/05/18 06:37:44;;;;;;;;;;;21.10;99.90;;;;;;4962244;28;20048;-63
2022/05/18 06:40:10;;;;;;;;;;;21.20;99.90;;;;;;4954845;28;20442;-63
2022/05/18 06:42:35;;;;;;;;;;;21.30;99.90;;;;;;4953919;28;19914;-63
2022/05/18 06:45:03;;;;;;;;;;;21.40;99.90;;;;;;4960201;28;20289;-63
2022/05/18 06:47:29;;;;;;;;;;;21.50;99.90;;;;;;4948870;28;19919;-63
2022/05/18 06:49:54;;;;;;;;;;;21.50;99.90;;;;;;4959490;28;19914;-63
2022/05/18 06:52:20;;;;;;;;;;;21.60;99.90;;;;;;4962833;28;19945;-63
2022/05/18 06:54:46;;;;;;;;;;;21.70;99.90;;;;;;4956307;28;20022;-63
2022/05/18 06:57:11;;;;;;;;;;;21.80;99.90;;;;;;4966775;28;19926;-63
2022/05/18 06:59:37;;;;;;;;;;;22.00;99.90;;;;;;4951071;28;19918;-63
2022/05/18 07:02:03;;;;;;;;;;;22.00;99.90;;;;;;4966372;28;19924;-63
2022/05/18 07:04:28;;;;;;;;;;;22.00;99.90;;;;;;4969061;28;19914;-63
2022/05/18 07:06:54;;;;;;;;;;;22.10;99.90;;;;;;4969204;28;19915;-63
2022/05/18 07:09:21;;;;;;;;;;;22.20;99.90;;;;;;4966174;28;19914;-63
2022/05/18 07:11:49;;;;;;;;;;;22.20;99.90;;;;;;4963574;28;19954;-63
2022/05/18 07:14:16;;;;;;;;;;;22.30;99.90;;;;;;4964552;28;19936;-62
2022/05/18 07:16:42;;;;;;;;;;;22.40;99.90;;;;;;4966378;28;19933;-63
2022/05/18 07:19:08;;;;;;;;;;;22.50;99.90;;;;;;4960715;28;19934;-63
2022/05/18 07:21:34;;;;;;;;;;;22.00;99.90;;;;;;4961721;28;19918;-63
2022/05/18 07:23:59;;;;;;;;;;;22.50;99.90;;;;;;4967856;28;19969;-63
2022/05/18 07:26:25;;;;;;;;;;;22.60;99.90;;;;;;4968369;28;19961;-63
2022/05/18 07:28:51;;;;;;;;;;;22.70;99.90;;;;;;4969072;28;20504;-63
2022/05/18 07:31:19;;;;;;;;;;;22.80;99.90;;;;;;4940200;28;19914;-63
2022/05/18 07:33:45;;;;;;;;;;;22.80;99.90;;;;;;4966620;28;19966;-63
2022/05/18 07:36:10;;;;;;;;;;;22.90;99.90;;;;;;4961160;28;20579;-63
2022/05/18 07:38:36;;;;;;;;;;;23.00;99.90;;;;;;4962884;28;19941;-63
2022/05/18 07:41:02;;;;;;;;;;;23.10;99.90;;;;;;4966709;28;19918;-63
2022/05/18 07:43:27;;;;;;;;;;;23.20;99.90;;;;;;4949888;28;20366;-63
2022/05/18 07:45:54;;;;;;;;;;;23.40;99.90;;;;;;4966929;28;19918;-63
2022/05/18 07:48:20;;;;;;;;;;;23.50;99.90;;;;;;4963177;28;19918;-63
2022/05/18 07:50:45;;;;;;;;;;;23.50;99.90;;;;;;4967848;28;19914;-63
2022/05/18 07:53:11;;;;;;;;;;;23.60;99.90;;;;;;4966540;28;20512;-63
2022/05/18 07:55:37;;;;;;;;;;;23.80;99.90;;;;;;4962757;28;19914;-63
2022/05/18 07:58:07;;;;;;;;;;;23.90;99.90;;;;;;4964687;28;19929;-63
2022/05/18 08:00:33;;;;;;;;;;;24.00;99.90;;;;;;4960013;28;19977;-63
2022/05/18 08:02:58;;;;;;;;;;;24.00;99.90;;;;;;4958230;28;19918;-63
2022/05/18 08:05:24;;;;;;;;;;;24.00;99.90;;;;;;4968698;28;19963;-63
2022/05/18 08:07:49;;;;;;;;;;;24.30;99.90;;;;;;4964544;28;20017;-63
2022/05/18 08:15:46;;;;;;;;;;;25.80;99.60;;;;;;4964089;28;19949;-63
2022/05/18 08:18:12;;;;;;;;;;;26.30;98.10;;;;;;4959649;28;19925;-63
2022/05/18 08:20:39;;;;;;;;;;;27.20;98.20;;;;;;4960476;28;19930;-63
2022/05/18 08:23:04;;;;;;;;;;;27.60;96.70;;;;;;4962805;28;19922;-64
2022/05/18 08:25:30;;;;;;;;;;;27.70;95.60;;;;;;4957550;28;20021;-64
2022/05/18 08:27:55;;;;;;;;;;;28.30;94.80;;;;;;4958216;28;19921;-64
2022/05/18 08:30:22;;;;;;;;;;;28.30;94.20;;;;;;4960515;28;19933;-64
2022/05/18 08:32:47;;;;;;;;;;;28.50;94.00;;;;;;4961737;28;19941;-64
2022/05/18 08:35:14;;;;;;;;;;;28.50;93.50;;;;;;4955651;28;20373;-64
2022/05/18 08:37:40;;;;;;;;;;;28.80;93.30;;;;;;4962891;28;20350;-64
2022/05/18 08:40:11;;;;;;;;;;;28.50;92.90;;;;;;4960884;28;20425;-64
2022/05/18 08:42:37;;;;;;;;;;;28.90;92.30;;;;;;4957978;28;19918;-64
2022/05/18 08:45:03;;;;;;;;;;;29.50;91.60;;;;;;4964621;28;19918;-64
2022/05/18 08:47:34;;;;;;;;;;;29.90;91.40;;;;;;4961898;28;19918;-64
2022/05/18 08:50:10;;;;;;;;;;;30.60;90.30;;;;;;4964791;28;19914;-64
2022/05/18 08:52:39;;;;;;;;;;;30.20;89.00;;;;;;4967529;28;19920;-64
2022/05/18 08:55:05;;;;;;;;;;;29.80;89.10;;;;;;4958038;28;20372;-64
2022/05/18 08:57:35;;;;;;;;;;;29.80;90.10;;;;;;4963802;28;19934;-64
2022/05/18 09:00:08;;;;;;;;;;;29.70;90.00;;;;;;4961093;28;19922;-64
2022/05/18 09:02:34;;;;;;;;;;;30.10;89.80;;;;;;4965468;28;19953;-64
2022/05/18 09:05:10;;;;;;;;;;;30.40;89.40;;;;;;4967330;28;20020;-64
2022/05/18 09:07:38;;;;;;;;;;;30.10;87.40;;;;;;4966589;28;20382;-64
2022/05/18 09:10:12;;;;;;;;;;;30.20;86.80;;;;;;4968171;28;20075;-64
2022/05/18 09:12:42;;;;;;;;;;;29.90;87.90;;;;;;4954643;28;19918;-64
2022/05/18 09:15:10;;;;;;;;;;;29.90;87.70;;;;;;4958830;28;19918;-64
2022/05/18 09:17:43;;;;;;;;;;;30.00;89.40;;;;;;4957542;28;19918;-64
2022/05/18 09:20:15;;;;;;;;;;;30.50;86.90;;;;;;4958891;28;20304;-64
2022/05/18 09:22:40;;;;;;;;;;;30.10;85.60;;;;;;4962306;28;20159;-64
2022/05/18 09:25:14;;;;;;;;;;;30.00;87.80;;;;;;4959427;28;19926;-64
2022/05/18 09:28:08;;;;;;;;;;;30.20;87.00;;;;;;4962983;28;20254;-64
2022/05/18 09:30:56;;;;;;;;;;;30.60;85.10;;;;;;4964068;28;19922;-64
2022/05/18 09:33:54;;;;;;;;;;;30.60;86.30;;;;;;4947728;28;20377;-64
2022/05/18 09:36:32;;;;;;;;;;;31.10;83.10;;;;;;4922372;28;20205;-64
2022/05/18 09:38:58;;;;;;;;;;;31.40;84.60;;;;;;4947886;28;19957;-64
2022/05/18 09:41:26;;;;;;;;;;;31.50;83.80;;;;;;4963962;28;19961;-64
2022/05/18 09:44:00;;;;;;;;;;;31.40;81.30;;;;;;4959893;28;19918;-64
2022/05/18 09:46:29;;;;;;;;;;;30.90;80.70;;;;;;4959116;28;20370;-64
2022/05/18 09:49:30;;;;;;;;;;;31.50;81.00;;;;;;4965056;28;20378;-64
2022/05/18 09:51:57;;;;;;;;;;;32.10;80.10;;;;;;4878242;29;19923;-64
2022/05/18 09:54:23;;;;;;;;;;;32.30;80.50;;;;;;4940279;28;19926;-64
2022/05/18 09:56:55;;;;;;;;;;;31.90;78.40;;;;;;4961832;28;19925;-64
2022/05/18 09:59:24;;;;;;;;;;;32.00;78.10;;;;;;4941845;28;21195;-64
2022/05/18 10:07:34;;;;;;;;;;;31.70;78.70;;;;;;4964296;28;20021;-64
2022/05/18 10:10:11;;;;;;;;;;;31.60;79.20;;;;;;4964230;28;20449;-64
2022/05/18 10:12:39;;;;;;;;;;;31.50;79.00;;;;;;4949226;28;20017;-64
2022/05/18 10:15:08;;;;;;;;;;;32.40;79.00;;;;;;4968703;28;19981;-64
2022/05/18 10:17:38;;;;;;;;;;;32.90;77.60;;;;;;4956607;28;19925;-64
2022/05/18 10:20:06;;;;;;;;;;;33.00;75.30;;;;;;4950589;28;19914;-64
2022/05/18 10:22:36;;;;;;;;;;;32.60;74.30;;;;;;4969717;28;19960;-64
2022/05/18 10:25:07;;;;;;;;;;;32.60;76.20;;;;;;4969525;28;20366;-64
2022/05/18 10:27:37;;;;;;;;;;;32.90;74.80;;;;;;4967314;28;19918;-64
2022/05/18 10:30:09;;;;;;;;;;;33.20;74.80;;;;;;4955555;28;19918;-64
2022/05/18 10:32:35;;;;;;;;;;;32.90;75.20;;;;;;4959517;28;19918;-64
2022/05/18 10:35:01;;;;;;;;;;;32.70;73.90;;;;;;4963016;28;20504;-64
2022/05/18 10:37:29;;;;;;;;;;;33.20;74.70;;;;;;4964945;28;20388;-64
2022/05/18 10:40:00;;;;;;;;;;;33.50;74.80;;;;;;4961915;28;20456;-64
2022/05/18 10:42:30;;;;;;;;;;;32.10;74.20;;;;;;4961838;28;19924;-64
2022/05/18 10:44:58;;;;;;;;;;;31.50;76.50;;;;;;4964661;28;19918;-64
2022/05/18 10:47:29;;;;;;;;;;;32.50;74.90;;;;;;4966496;28;19914;-64
2022/05/18 10:50:09;;;;;;;;;;;33.70;71.70;;;;;;4968256;28;20292;-64
2022/05/18 10:52:34;;;;;;;;;;;33.10;73.40;;;;;;4970171;28;20013;-64
2022/05/18 10:55:14;;;;;;;;;;;33.40;73.70;;;;;;4966166;28;20013;-64
2022/05/18 10:57:40;;;;;;;;;;;33.80;71.90;;;;;;4966110;28;20074;-65
2022/05/18 11:00:12;;;;;;;;;;;34.50;71.50;;;;;;4955299;28;20439;-65
2022/05/18 11:02:56;;;;;;;;;;;34.30;73.30;;;;;;4966292;28;20001;-65
2022/05/18 11:05:27;;;;;;;;;;;35.10;70.90;;;;;;4944067;28;19918;-65
2022/05/18 11:07:53;;;;;;;;;;;35.80;71.20;;;;;;4967005;28;19914;-65
2022/05/18 11:10:19;;;;;;;;;;;35.10;68.20;;;;;;4968325;28;19918;-64
2022/05/18 11:12:48;;;;;;;;;;;33.40;71.40;;;;;;4966500;28;19969;-64
2022/05/18 11:15:32;;;;;;;;;;;33.60;71.00;;;;;;4964247;28;19929;-65
2022/05/18 11:22:20;;;;;;;;;;;33.90;70.30;;;;;;4991148;27;19924;-64
2022/05/18 11:25:01;;;;;;;;;;;34.70;68.20;;;;;;5036182;28;19916;-64
2022/05/18 11:27:46;;;;;;;;;;;34.60;70.00;;;;;;5058664;28;19927;-64
2022/05/18 11:30:14;;;;;;;;;;;35.00;68.50;;;;;;5061591;28;19917;-64
2022/05/18 11:34:19;;;;;;;;;;;;;;;;;;5063655;28;20338;-61
2022/05/18 11:36:45;;;;;;;;;;;;;;;;;;4988448;28;19937;-61
2022/05/18 11:39:11;;;;;;;;;;;;;;;;;;4989609;28;20388;-61
2022/05/18 11:43:30;;;;;;;7.63;2.20;;;34.10;72.60;;;;;;5031962;27;20426;-61
2022/05/18 11:46:16;;;;;;;7.00;2.28;;;34.00;68.20;;;;;;4822222;28;20056;-61
2022/05/18 11:49:13;;;;;;;6.10;2.08;;;34.60;66.80;;;;;;5012128;28;20030;-61
2022/05/18 11:52:06;;;;;;;5.07;1.90;;;35.60;65.20;;;;;;5016956;28;20036;-61
2022/05/18 11:54:52;;;;;;;5.22;1.90;;;35.20;64.20;;;;;;5009252;28;20132;-61
2022/05/18 11:57:45;;;;;;;4.60;1.80;;;35.40;64.70;;;;;;5010103;28;20418;-61
2022/05/18 12:03:29;;;;;;;6.70;2.20;;;35.40;63.40;;;;;;5007833;28;20527;-61
2022/05/18 12:06:11;;;;;;;5.53;1.92;;;36.20;62.90;;;;;;5000288;28;20401;-61
2022/05/18 12:09:07;;;;;;;5.85;1.90;;;36.60;63.60;;;;;;5001894;28;20038;-61
2022/05/18 12:12:17;;;;;;;8.60;2.08;;;37.70;62.60;;;;;;5009933;28;20033;-61
2022/05/18 12:15:11;;;;;;;6.00;1.80;;;36.20;62.70;;;;;;5019188;28;20069;-61
2022/05/18 12:18:01;;;;;;;5.57;1.95;;;36.10;62.90;;;;;;5007258;28;20046;-61
2022/05/18 12:20:35;;;;;;;7.20;1.80;;;36.20;63.20;;;;;;5006964;28;20494;-61
2022/05/18 12:23:06;;;;;;;6.03;1.90;;;36.00;61.00;;;;;;5006299;28;20030;-61
2022/05/18 12:25:33;;;;;;;4.65;1.80;;;35.80;62.70;;;;;;5008765;28;20030;-61
2022/05/18 12:28:04;;;;;;;7.78;2.05;;;35.80;61.10;;;;;;5004698;28;20036;-61
2022/05/18 12:30:33;;;;;;;5.30;1.90;;;36.90;60.70;;;;;;5005125;28;20026;-61
2022/05/18 12:33:01;;;;;;;4.72;2.00;;;37.80;60.10;;;;;;5006053;28;20037;-61
2022/05/18 12:35:35;;;;;;;6.25;1.75;;;38.30;60.90;;;;;;5012697;28;20033;-61
2022/05/18 12:38:09;;;;;;;5.40;1.70;;;38.80;60.00;;;;;;5003292;28;20068;-61
2022/05/18 12:40:49;;;;;;;5.43;1.73;;;39.00;58.90;;;;;;5006110;28;20038;-61
2022/05/18 12:43:26;;;;;;;5.55;1.75;;;38.90;57.90;;;;;;5024245;28;20039;-61
2022/05/18 12:46:04;;;;;;;5.60;1.90;;;38.00;59.20;;;;;;5028368;28;20029;-62
2022/05/18 12:48:35;;;;;;;6.03;1.67;;;37.50;58.50;;;;;;5041883;28;20437;-62
2022/05/18 12:51:06;;;;;;;6.78;1.77;;;37.80;57.90;;;;;;5032166;28;20461;-62
2022/05/18 12:53:44;;;;;;;5.85;1.70;;;38.70;57.60;;;;;;5018632;28;20422;-62
2022/05/18 12:56:19;;;;;;;4.40;1.60;;;38.60;58.30;;;;;;5015514;28;20033;-62
2022/05/18 12:59:07;;;;;;;6.15;1.80;;;38.00;58.90;;;;;;5016714;28;20030;-62
2022/05/18 13:01:38;;;;;;;7.25;1.75;;;38.60;57.30;;;;;;5009164;28;20132;-62
2022/05/18 13:04:09;;;;;;;4.05;1.50;;;38.30;56.30;;;;;;5017812;28;20072;-61
2022/05/18 13:06:35;;;;;;;6.30;1.80;;;37.00;57.60;;;;;;5015863;28;20030;-61
2022/05/18 13:09:24;;;;;;;7.07;2.00;;;37.50;57.30;;;;;;5013432;28;20500;-61
2022/05/18 13:12:03;;;;;;;5.05;1.50;;;38.20;57.10;;;;;;5014667;28;20044;-61
2022/05/18 13:14:34;;;;;;;5.93;1.80;;;38.30;57.90;;;;;;5010872;28;20030;-62
2022/05/18 13:17:00;;;;;;;6.00;2.00;;;38.80;56.10;;;;;;5012339;28;20083;-61
2022/05/18 13:19:28;;;;;;;5.15;1.65;;;38.00;55.80;;;;;;5014360;28;20112;-62
2022/05/18 13:22:00;;;;;;;8.45;1.70;;;37.50;57.10;;;;;;5010678;28;20529;-62
2022/05/18 13:24:34;;;;;;;7.18;1.80;;;38.30;57.90;;;;;;5015110;28;20030;-61
2022/05/18 13:27:11;;;;;;;8.02;1.77;;;37.00;58.20;;;;;;5013626;28;20668;-61
2022/05/18 13:29:37;;;;;;;5.13;1.92;;;36.00;58.20;;;;;;5018251;28;20042;-61
2022/05/18 13:32:07;;;;;;;5.43;1.90;;;34.80;59.90;;;;;;5013451;28;20045;-61
2022/05/18 13:34:40;;;;;;;5.05;1.95;;;34.50;60.30;;;;;;5013191;28;20030;-61
2022/05/18 13:37:06;;;;;;;6.80;1.95;;;33.70;60.10;;;;;;5015430;28;20325;-61
2022/05/18 13:39:42;;;;;;;6.10;1.80;;;34.40;60.90;;;;;;5015152;28;20144;-61
2022/05/18 13:42:15;;;;;;;4.47;1.73;;;36.90;58.70;;;;;;5014192;28;20052;-61
2022/05/18 13:44:42;;;;;;;5.20;1.85;;;38.50;56.40;;;;;;5020730;28;20109;-62
2022/05/18 13:47:17;;;;;;;5.60;2.05;;;38.10;57.30;;;;;;5018476;28;20393;-62
2022/05/18 13:49:43;;;;;;;4.20;1.70;;;37.70;57.50;;;;;;5014955;28;20029;-61
2022/05/18 13:52:29;;;;;;;4.95;1.67;;;36.60;56.90;;;;;;5007222;28;20029;-61
2022/05/18 13:55:04;;;;;;;4.93;1.92;;;37.90;57.40;;;;;;5014759;28;20026;-61
2022/05/18 13:58:07;;;;;;;5.68;1.92;;;38.80;57.00;;;;;;5017107;28;20021;-61
2022/05/18 14:00:49;;;;;;;5.53;2.00;;;39.50;56.20;;;;;;5004308;28;20044;-61
2022/05/18 14:03:21;;;;;;;8.80;1.90;;;37.50;55.70;;;;;;5009519;28;20363;-61
2022/05/18 14:05:47;;;;;;;4.88;1.80;;;35.80;57.60;;;;;;5011930;28;20800;-61
2022/05/18 14:08:24;;;;;;;6.70;1.90;;;35.20;58.90;;;;;;5012798;28;20100;-62
2022/05/18 14:10:49;;;;;;;7.07;1.90;;;37.50;58.50;;;;;;5009101;28;20037;-62
2022/05/18 14:13:15;;;;;;;5.95;1.80;;;38.10;57.60;;;;;;5013731;28;20025;-61
2022/05/18 14:15:41;;;;;;;7.88;1.90;;;38.20;56.70;;;;;;5012912;28;20082;-62
2022/05/18 14:18:15;;;;;;;5.47;1.80;;;39.30;56.10;;;;;;5016029;28;20032;-62
2022/05/18 14:20:45;;;;;;;6.22;1.73;;;38.30;54.10;;;;;;5015661;28;20030;-61
2022/05/18 14:23:20;;;;;;;5.18;1.60;;;37.70;54.60;;;;;;5013377;28;20022;-62
2022/05/18 14:25:50;;;;;;;7.45;1.98;;;38.40;54.40;;;;;;5011292;28;20578;-62
2022/05/18 14:28:23;;;;;;;6.07;1.80;;;38.20;55.50;;;;;;5013596;28;20177;-62
2022/05/18 14:30:49;;;;;;;4.55;1.67;;;36.80;56.90;;;;;;5012549;28;20038;-61
2022/05/18 14:33:35;;;;;;;5.38;2.05;;;36.10;55.90;;;;;;5017429;28;20401;-62
2022/05/18 14:36:07;;;;;;;4.57;1.90;;;35.60;57.20;;;;;;5008628;28;20156;-61
2022/05/18 14:38:35;;;;;;;6.47;1.98;;;35.10;56.60;;;;;;5014204;28;20029;-61
2022/05/18 14:41:07;;;;;;;6.00;1.90;;;34.30;58.20;;;;;;5009132;28;20389;-61